createdAt,value
2023-03-14T00:01:19.053Z,7.65
2023-03-14T00:03:47.455Z,7.07
2023-03-14T00:06:15.319Z,7.38
2023-03-14T00:08:42.961Z,7.13
2023-03-14T00:11:12.766Z,6.57
2023-03-14T00:13:39.965Z,7.40
2023-03-14T00:16:10.804Z,7.35
2023-03-14T00:18:39.530Z,7.80
2023-03-14T00:21:07.086Z,6.28
2023-03-14T00:23:36.654Z,8.25
2023-03-14T00:26:04.885Z,7.57
2023-03-14T00:28:32.522Z,6.90
2023-03-14T00:30:59.475Z,7.32
2023-03-14T00:33:26.947Z,5.93
2023-03-14T00:36:17.081Z,6.50
2023-03-14T00:38:46.223Z,6.35
2023-03-14T00:41:14.716Z,6.15
2023-03-14T00:43:42.435Z,4.80
2023-03-14T00:46:10.479Z,5.53
2023-03-14T00:48:37.463Z,6.68
2023-03-14T00:51:05.249Z,6.53
2023-03-14T00:53:32.705Z,6.93
2023-03-14T00:56:04.454Z,6.57
2023-03-14T00:58:31.953Z,6.38
2023-03-14T01:01:00.004Z,6.70
2023-03-14T01:03:26.948Z,7.10
2023-03-14T01:05:54.646Z,6.82
2023-03-14T01:08:22.090Z,8.60
2023-03-14T01:10:50.474Z,6.70
2023-03-14T01:13:18.141Z,7.55
2023-03-14T01:15:45.734Z,6.88
2023-03-14T01:18:12.812Z,7.32
2023-03-14T01:20:41.294Z,6.50
2023-03-14T01:23:08.338Z,6.60
2023-03-14T01:25:35.468Z,6.18
2023-03-14T01:28:02.438Z,7.28
2023-03-14T01:30:30.650Z,7.25
2023-03-14T01:32:58.233Z,6.97
2023-03-14T01:35:26.069Z,7.95
2023-03-14T01:37:57.735Z,6.47
2023-03-14T01:40:24.707Z,6.40
2023-03-14T01:42:58.798Z,6.20
2023-03-14T01:45:44.906Z,7.72
2023-03-14T01:48:11.995Z,5.80
2023-03-14T01:50:39.277Z,5.57
2023-03-14T01:53:07.514Z,5.90
2023-03-14T01:55:35.027Z,6.93
2023-03-14T01:58:04.110Z,6.65
2023-03-14T02:00:31.167Z,6.82
2023-03-14T02:03:07.054Z,6.60
2023-03-14T02:05:37.998Z,5.97
2023-03-14T02:08:14.772Z,6.45
2023-03-14T02:10:49.429Z,5.63
2023-03-14T02:13:19.763Z,5.70
2023-03-14T02:16:18.244Z,5.43
2023-03-14T02:19:09.050Z,5.20
2023-03-14T02:22:07.113Z,5.97
2023-03-14T02:24:44.541Z,6.07
2023-03-14T02:27:17.985Z,6.60
2023-03-14T02:29:49.836Z,6.53
2023-03-14T02:32:18.167Z,6.13
2023-03-14T02:34:47.217Z,6.25
2023-03-14T02:37:16.035Z,8.02
2023-03-14T02:39:45.924Z,7.50
2023-03-14T02:42:15.055Z,6.93
2023-03-14T02:44:56.343Z,6.50
2023-03-14T02:47:28.169Z,6.45
2023-03-14T02:50:00.472Z,6.15
2023-03-14T02:52:28.171Z,7.13
2023-03-14T02:54:55.233Z,7.32
2023-03-14T02:57:22.459Z,7.47
2023-03-14T02:59:50.257Z,6.47
2023-03-14T03:02:20.640Z,7.63
2023-03-14T03:04:47.610Z,7.40
2023-03-14T03:07:17.898Z,6.72
2023-03-14T03:09:45.403Z,6.57
2023-03-14T03:12:12.268Z,6.97
2023-03-14T03:14:40.686Z,6.50
2023-03-14T03:17:08.818Z,6.07
2023-03-14T03:19:36.385Z,6.60
2023-03-14T03:22:04.379Z,7.10
2023-03-14T03:24:31.383Z,5.53
2023-03-14T03:26:59.387Z,7.10
2023-03-14T03:29:26.809Z,6.10
2023-03-14T03:31:55.646Z,6.00
2023-03-14T03:34:23.439Z,6.75
2023-03-14T03:36:53.385Z,6.75
2023-03-14T03:39:20.508Z,6.20
2023-03-14T03:41:50.076Z,7.03
2023-03-14T03:44:18.528Z,7.13
2023-03-14T03:46:46.287Z,6.65
2023-03-14T03:49:14.972Z,7.45
2023-03-14T03:51:44.292Z,6.10
2023-03-14T03:54:12.758Z,6.43
2023-03-14T03:56:40.080Z,5.55
2023-03-14T03:59:07.212Z,5.65
2023-03-14T04:01:34.767Z,5.43
2023-03-14T04:04:02.192Z,6.40
2023-03-14T04:06:30.037Z,5.15
2023-03-14T04:09:00.314Z,4.93
2023-03-14T04:11:41.704Z,6.35
2023-03-14T04:14:24.832Z,4.45
2023-03-14T04:17:18.557Z,5.57
2023-03-14T04:19:45.462Z,5.50
2023-03-14T04:22:13.189Z,6.40
2023-03-14T04:24:47.619Z,5.70
2023-03-14T04:27:16.759Z,6.55
2023-03-14T04:29:46.376Z,5.70
2023-03-14T04:32:16.309Z,6.40
2023-03-14T04:34:44.750Z,6.20
2023-03-14T04:37:12.103Z,5.90
2023-03-14T04:39:42.263Z,5.22
2023-03-14T04:42:17.482Z,6.47
2023-03-14T04:44:44.736Z,5.60
2023-03-14T04:47:14.796Z,6.45
2023-03-14T04:49:44.205Z,6.80
2023-03-14T04:52:13.517Z,5.70
2023-03-14T04:54:40.697Z,5.70
2023-03-14T04:57:08.057Z,7.82
2023-03-14T04:59:37.901Z,5.85
2023-03-14T05:02:28.123Z,6.47
2023-03-14T05:05:07.427Z,7.32
2023-03-14T05:08:07.382Z,6.13
2023-03-14T05:10:58.303Z,7.32
2023-03-14T05:13:53.356Z,7.35
2023-03-14T05:16:56.592Z,6.97
2023-03-14T05:19:43.852Z,6.18
2023-03-14T05:22:19.071Z,5.95
2023-03-14T05:25:08.597Z,8.35
2023-03-14T05:27:54.511Z,6.25
2023-03-14T05:30:48.624Z,7.35
2023-03-14T05:33:38.461Z,5.78
2023-03-14T05:36:15.820Z,6.30
2023-03-14T05:38:58.164Z,6.68
2023-03-14T05:41:40.151Z,6.50
2023-03-14T05:44:26.811Z,4.35
2023-03-14T05:47:10.993Z,9.88
2023-03-14T05:50:04.541Z,7.13
2023-03-14T05:52:43.646Z,4.18
2023-03-14T05:55:30.345Z,5.75
2023-03-14T05:58:09.985Z,4.80
2023-03-14T06:00:55.228Z,4.68
2023-03-14T06:03:36.921Z,3.88
2023-03-14T06:06:04.442Z,4.90
2023-03-14T06:08:31.346Z,5.15
2023-03-14T06:10:58.829Z,5.85
2023-03-14T06:13:30.205Z,6.60
2023-03-14T06:15:57.193Z,5.45
2023-03-14T06:18:24.025Z,4.40
2023-03-14T06:20:54.483Z,4.70
2023-03-14T06:23:25.827Z,8.13
2023-03-14T06:25:53.639Z,7.82
2023-03-14T06:28:25.821Z,9.27
2023-03-14T06:30:53.604Z,9.25
2023-03-14T06:33:20.705Z,7.85
2023-03-14T06:35:48.330Z,7.18
2023-03-14T06:38:15.196Z,7.95
2023-03-14T06:40:42.584Z,8.60
2023-03-14T06:43:13.309Z,7.45
2023-03-14T06:45:43.086Z,8.45
2023-03-14T06:48:10.257Z,6.90
2023-03-14T06:50:46.773Z,7.35
2023-03-14T06:53:13.803Z,6.63
2023-03-14T06:55:44.315Z,11.52
2023-03-14T06:58:11.703Z,8.32
2023-03-14T07:00:44.095Z,8.80
2023-03-14T07:03:14.619Z,9.05
2023-03-14T07:05:44.533Z,9.63
2023-03-14T07:08:11.726Z,10.70
2023-03-14T07:10:39.333Z,9.25
2023-03-14T07:13:07.729Z,7.88
2023-03-14T07:15:39.585Z,8.13
2023-03-14T07:18:10.710Z,9.20
2023-03-14T07:20:37.708Z,7.38
2023-03-14T07:23:05.895Z,8.48
2023-03-14T07:25:38.376Z,7.68
2023-03-14T07:28:05.423Z,8.30
2023-03-14T07:30:33.289Z,8.45
2023-03-14T07:33:02.564Z,8.65
2023-03-14T07:35:29.499Z,11.70
2023-03-14T07:37:56.300Z,7.35
2023-03-14T07:40:30.155Z,7.30
2023-03-14T07:42:57.348Z,7.63
2023-03-14T07:45:31.905Z,7.63
2023-03-14T07:47:58.942Z,8.23
2023-03-14T07:50:26.784Z,8.98
2023-03-14T07:52:53.931Z,8.18
2023-03-14T07:55:20.726Z,8.88
2023-03-14T07:57:47.564Z,8.65
2023-03-14T08:00:16.102Z,8.68
2023-03-14T08:02:43.487Z,9.07
2023-03-14T08:05:11.308Z,9.60
2023-03-14T08:07:38.568Z,9.13
2023-03-14T08:10:06.436Z,8.77
2023-03-14T08:12:33.470Z,8.93
2023-03-14T08:15:00.924Z,9.02
2023-03-14T08:17:28.927Z,8.98
2023-03-14T08:19:55.950Z,11.43
2023-03-14T08:22:22.761Z,11.32
2023-03-14T08:24:49.543Z,11.13
2023-03-14T08:27:16.611Z,10.15
2023-03-14T08:29:43.770Z,10.48
2023-03-14T08:32:10.752Z,11.85
2023-03-14T08:34:38.772Z,11.77
2023-03-14T08:37:13.665Z,10.85
2023-03-14T08:39:50.519Z,10.45
2023-03-14T08:42:17.560Z,11.10
2023-03-14T08:44:44.551Z,11.20
2023-03-14T08:47:11.591Z,14.27
2023-03-14T08:49:38.684Z,12.48
2023-03-14T08:52:06.084Z,12.43
2023-03-14T08:54:33.637Z,11.13
2023-03-14T08:57:00.640Z,9.95
2023-03-14T08:59:27.546Z,10.00
2023-03-14T09:01:55.781Z,13.95
2023-03-14T09:04:23.110Z,12.23
2023-03-14T09:07:00.360Z,11.93
2023-03-14T09:09:31.208Z,10.77
2023-03-14T09:11:58.142Z,8.55
2023-03-14T09:14:25.028Z,9.60
2023-03-14T09:16:52.248Z,9.93
2023-03-14T09:19:19.233Z,10.27
2023-03-14T09:21:46.211Z,7.88
2023-03-14T09:24:13.140Z,7.40
2023-03-14T09:26:43.043Z,6.70
2023-03-14T09:29:10.344Z,6.05
2023-03-14T09:31:37.544Z,7.25
2023-03-14T09:34:04.840Z,6.20
2023-03-14T09:36:31.729Z,5.68
2023-03-14T09:38:58.656Z,5.22
2023-03-14T09:41:34.520Z,6.15
2023-03-14T09:44:24.665Z,5.97
2023-03-14T09:46:55.710Z,6.05
2023-03-14T09:49:30.185Z,4.68
2023-03-14T09:51:58.186Z,4.68
2023-03-14T09:54:37.022Z,7.55
2023-03-14T09:57:05.147Z,5.15
2023-03-14T09:59:32.165Z,6.63
2023-03-14T10:02:01.650Z,4.68
2023-03-14T10:04:29.560Z,4.82
2023-03-14T10:06:56.557Z,4.80
2023-03-14T10:09:26.488Z,5.80
2023-03-14T10:11:57.911Z,4.75
2023-03-14T10:14:31.347Z,5.28
2023-03-14T10:17:06.144Z,5.70
2023-03-14T10:19:33.168Z,5.40
2023-03-14T10:22:02.184Z,4.53
2023-03-14T10:24:30.540Z,5.95
2023-03-14T10:27:05.286Z,4.05
2023-03-14T10:29:33.173Z,4.88
2023-03-14T10:32:04.601Z,5.75
2023-03-14T10:34:36.449Z,4.72
2023-03-14T10:37:38.553Z,5.10
2023-03-14T10:40:07.411Z,5.45
2023-03-14T10:42:35.861Z,5.82
2023-03-14T10:45:04.816Z,4.57
2023-03-14T10:47:33.440Z,6.38
2023-03-14T10:50:20.195Z,5.35
2023-03-14T10:53:05.230Z,4.15
2023-03-14T10:55:42.460Z,5.72
2023-03-14T10:58:29.881Z,3.55
2023-03-14T11:01:10.817Z,5.07
2023-03-14T11:03:39.300Z,3.53
2023-03-14T11:06:11.451Z,5.15
2023-03-14T11:08:54.695Z,4.07
2023-03-14T11:11:24.652Z,3.60
2023-03-14T11:14:17.770Z,4.28
2023-03-14T11:16:52.262Z,7.75
2023-03-14T11:19:30.725Z,7.38
2023-03-14T11:22:01.168Z,6.85
2023-03-14T11:24:50.730Z,4.68
2023-03-14T11:27:31.710Z,5.40
2023-03-14T11:30:18.710Z,4.25
2023-03-14T11:33:03.387Z,4.68
2023-03-14T11:35:38.912Z,5.55
2023-03-14T11:38:19.500Z,3.80
2023-03-14T11:40:48.102Z,4.65
2023-03-14T11:43:31.989Z,4.93
2023-03-14T11:46:26.619Z,5.40
2023-03-14T11:49:09.592Z,4.45
2023-03-14T11:51:45.605Z,5.00
2023-03-14T11:54:31.687Z,4.10
2023-03-14T11:57:06.327Z,4.97
2023-03-14T12:00:13.713Z,4.30
2023-03-14T12:03:10.699Z,4.90
2023-03-14T12:05:47.649Z,3.85
2023-03-14T12:08:30.698Z,4.10
2023-03-14T12:11:01.393Z,5.22
2023-03-14T12:13:34.930Z,3.83
2023-03-14T12:16:05.295Z,3.65
2023-03-14T12:18:34.195Z,3.83
2023-03-14T12:21:03.314Z,4.35
2023-03-14T12:23:38.250Z,4.88
2023-03-14T12:26:28.160Z,4.90
2023-03-14T12:29:16.810Z,3.70
2023-03-14T12:31:45.105Z,3.55
2023-03-14T12:34:32.224Z,4.72
2023-03-14T12:37:19.427Z,4.18
2023-03-14T12:39:49.310Z,3.88
2023-03-14T12:42:21.882Z,3.53
2023-03-14T12:44:49.870Z,2.92
2023-03-14T12:47:36.876Z,4.60
2023-03-14T12:50:09.365Z,3.58
2023-03-14T12:52:47.821Z,3.30
2023-03-14T12:55:23.214Z,6.10
2023-03-14T12:57:58.085Z,4.15
2023-03-14T13:00:37.932Z,3.45
2023-03-14T13:03:23.381Z,8.97
2023-03-14T13:06:10.327Z,7.30
2023-03-14T13:08:41.667Z,3.33
2023-03-14T13:11:14.383Z,3.80
2023-03-14T13:13:47.700Z,5.13
2023-03-14T13:16:17.138Z,3.55
2023-03-14T13:18:45.048Z,2.70
2023-03-14T13:21:18.074Z,3.15
2023-03-14T13:23:59.031Z,4.53
2023-03-14T13:28:52.544Z,4.30
2023-03-14T13:31:24.067Z,1.95
2023-03-14T13:34:01.104Z,2.58
2023-03-14T13:36:29.023Z,2.47
2023-03-14T13:38:57.984Z,5.40
2023-03-14T13:41:25.083Z,2.25
2023-03-14T13:43:51.937Z,2.40
2023-03-14T13:46:21.768Z,2.13
2023-03-14T13:48:53.506Z,4.27
2023-03-14T13:51:22.127Z,2.30
2023-03-14T13:53:53.020Z,2.80
2023-03-14T13:56:23.548Z,4.10
2023-03-14T13:58:51.021Z,2.40
2023-03-14T14:01:19.895Z,2.63
2023-03-14T14:03:52.194Z,3.83
2023-03-14T14:06:32.936Z,3.13
2023-03-14T14:09:02.014Z,2.30
2023-03-14T14:11:47.179Z,3.13
2023-03-14T14:14:22.575Z,3.20
2023-03-14T14:16:52.404Z,2.05
2023-03-14T14:19:21.681Z,3.47
2023-03-14T14:21:48.973Z,2.80
2023-03-14T14:24:16.530Z,2.28
2023-03-14T14:26:54.073Z,2.63
2023-03-14T14:29:34.043Z,2.17
2023-03-14T14:32:10.643Z,3.83
2023-03-14T14:35:00.563Z,2.53
2023-03-14T14:37:31.858Z,2.13
2023-03-14T14:39:59.961Z,1.98
2023-03-14T14:42:29.059Z,2.22
2023-03-14T14:44:57.357Z,3.40
2023-03-14T14:47:25.996Z,8.15
2023-03-14T14:49:54.716Z,3.25
2023-03-14T14:52:23.245Z,2.00
2023-03-14T14:54:57.132Z,2.47
2023-03-14T14:57:25.630Z,2.47
2023-03-14T14:59:54.586Z,2.30
2023-03-14T15:02:45.312Z,2.50
2023-03-14T15:05:16.197Z,2.88
2023-03-14T15:07:43.112Z,2.08
2023-03-14T15:10:11.714Z,3.60
2023-03-14T15:12:38.575Z,2.97
2023-03-14T15:15:05.854Z,2.88
2023-03-14T15:17:34.172Z,1.90
2023-03-14T15:20:00.948Z,2.03
2023-03-14T15:22:27.777Z,3.17
2023-03-14T15:24:54.521Z,1.85
2023-03-14T15:27:21.348Z,2.03
2023-03-14T15:29:48.184Z,5.72
2023-03-14T15:32:16.967Z,2.03
2023-03-14T15:34:44.004Z,2.00
2023-03-14T15:37:12.338Z,3.17
2023-03-14T15:39:39.369Z,6.50
2023-03-14T15:42:06.348Z,1.60
2023-03-14T15:44:33.161Z,2.42
2023-03-14T15:47:00.130Z,3.72
2023-03-14T15:49:27.004Z,3.13
2023-03-14T15:51:55.227Z,2.63
2023-03-14T15:54:22.974Z,3.60
2023-03-14T15:56:49.806Z,3.40
2023-03-14T15:59:16.835Z,3.10
2023-03-14T16:01:43.680Z,1.77
2023-03-14T16:04:10.504Z,3.38
2023-03-14T16:06:38.008Z,3.15
2023-03-14T16:09:05.408Z,3.17
2023-03-14T16:11:32.563Z,2.75
2023-03-14T16:13:59.415Z,3.33
2023-03-14T16:16:26.272Z,2.65
2023-03-14T16:18:53.202Z,4.85
2023-03-14T16:21:20.697Z,3.28
2023-03-14T16:23:47.719Z,3.05
2023-03-14T16:26:15.934Z,3.80
2023-03-14T16:28:43.016Z,6.25
2023-03-14T16:31:10.952Z,3.67
2023-03-14T16:33:38.759Z,4.68
2023-03-14T16:36:08.942Z,4.80
2023-03-14T16:38:37.172Z,3.78
2023-03-14T16:41:08.815Z,3.33
2023-03-14T16:43:38.756Z,3.25
2023-03-14T16:46:07.034Z,3.92
2023-03-14T16:48:34.058Z,4.22
2023-03-14T16:51:01.350Z,4.20
2023-03-14T16:53:30.221Z,3.63
2023-03-14T16:55:58.572Z,3.60
2023-03-14T16:58:25.448Z,4.53
2023-03-14T17:00:52.362Z,7.22
2023-03-14T17:03:19.361Z,3.55
2023-03-14T17:05:49.867Z,3.95
2023-03-14T17:08:17.249Z,4.72
2023-03-14T17:10:44.563Z,4.95
2023-03-14T17:13:11.475Z,3.70
2023-03-14T17:15:38.666Z,4.10
2023-03-14T17:18:05.929Z,3.72
2023-03-14T17:20:33.021Z,4.70
2023-03-14T17:23:00.203Z,8.40
2023-03-14T17:25:27.165Z,5.25
2023-03-14T17:27:54.046Z,3.78
2023-03-14T17:30:21.143Z,7.93
2023-03-14T17:32:48.129Z,4.25
2023-03-14T17:35:14.999Z,4.90
2023-03-14T17:37:42.561Z,4.60
2023-03-14T17:40:10.254Z,4.28
2023-03-14T17:42:37.202Z,5.03
2023-03-14T17:45:04.462Z,3.70
2023-03-14T17:47:31.310Z,3.80
2023-03-14T17:49:58.309Z,3.65
2023-03-14T17:52:25.130Z,4.60
2023-03-14T17:54:52.278Z,4.88
2023-03-14T17:57:19.085Z,4.30
2023-03-14T17:59:47.177Z,4.10
2023-03-14T18:02:14.652Z,4.18
2023-03-14T18:04:41.686Z,3.97
2023-03-14T18:07:08.931Z,3.95
2023-03-14T18:09:35.699Z,4.57
2023-03-14T18:12:08.176Z,4.85
2023-03-14T18:14:36.284Z,4.25
2023-03-14T18:17:03.286Z,5.30
2023-03-14T18:19:31.609Z,4.00
2023-03-14T18:21:58.919Z,4.45
2023-03-14T18:24:27.814Z,4.30
2023-03-14T18:26:55.868Z,3.53
2023-03-14T18:29:22.835Z,3.95
2023-03-14T18:31:49.933Z,5.07
2023-03-14T18:34:16.925Z,4.60
2023-03-14T18:36:46.309Z,4.28
2023-03-14T18:39:13.669Z,5.72
2023-03-14T18:41:41.406Z,4.15
2023-03-14T18:44:09.265Z,4.57
2023-03-14T18:46:36.312Z,4.63
2023-03-14T18:49:06.465Z,4.57
2023-03-14T18:51:33.661Z,3.80
2023-03-14T18:54:09.458Z,4.43
2023-03-14T18:56:38.064Z,3.65
2023-03-14T18:59:04.896Z,4.57
2023-03-14T19:01:34.472Z,3.30
2023-03-14T19:04:01.954Z,4.05
2023-03-14T19:06:30.517Z,3.78
2023-03-14T19:08:57.597Z,3.63
2023-03-14T19:11:26.781Z,3.55
2023-03-14T19:13:55.152Z,3.97
2023-03-14T19:16:25.116Z,3.70
2023-03-14T19:18:55.900Z,3.15
2023-03-14T19:21:27.494Z,5.85
2023-03-14T19:23:54.310Z,3.65
2023-03-14T19:26:21.886Z,3.58
2023-03-14T19:28:48.741Z,4.72
2023-03-14T19:31:15.686Z,3.80
2023-03-14T19:33:42.852Z,3.25
2023-03-14T19:36:18.129Z,4.20
2023-03-14T19:38:44.960Z,4.55
2023-03-14T19:41:11.852Z,4.93
2023-03-14T19:43:38.726Z,4.75
2023-03-14T19:46:05.914Z,4.38
2023-03-14T19:48:32.887Z,3.55
2023-03-14T19:50:59.889Z,4.82
2023-03-14T19:53:26.835Z,6.15
2023-03-14T19:55:53.739Z,5.10
2023-03-14T19:58:21.487Z,5.32
2023-03-14T20:00:48.837Z,5.00
2023-03-14T20:03:15.686Z,5.07
2023-03-14T20:05:44.886Z,4.50
2023-03-14T20:08:11.730Z,6.07
2023-03-14T20:10:38.607Z,5.05
2023-03-14T20:13:15.488Z,5.13
2023-03-14T20:15:46.216Z,6.38
2023-03-14T20:18:13.080Z,5.03
2023-03-14T20:20:41.261Z,5.13
2023-03-14T20:23:08.504Z,5.00
2023-03-14T20:25:35.745Z,5.80
2023-03-14T20:28:02.575Z,4.95
2023-03-14T20:30:29.319Z,5.47
2023-03-14T20:32:56.142Z,5.35
2023-03-14T20:35:25.986Z,6.63
2023-03-14T20:37:53.619Z,5.95
2023-03-14T20:40:20.968Z,4.82
2023-03-14T20:42:47.851Z,4.90
2023-03-14T20:45:14.758Z,5.43
2023-03-14T20:47:41.644Z,5.45
2023-03-14T20:50:09.119Z,4.88
2023-03-14T20:52:36.042Z,5.35
2023-03-14T20:55:02.921Z,5.47
2023-03-14T20:57:29.728Z,5.93
2023-03-14T20:59:56.537Z,5.15
2023-03-14T21:02:32.570Z,6.63
2023-03-14T21:04:59.403Z,5.28
2023-03-14T21:07:26.313Z,4.88
2023-03-14T21:09:53.104Z,4.68
2023-03-14T21:12:20.471Z,5.35
2023-03-14T21:14:47.289Z,4.55
2023-03-14T21:17:14.131Z,4.60
2023-03-14T21:19:41.185Z,5.45
2023-03-14T21:22:07.973Z,6.80
2023-03-14T21:24:35.079Z,8.15
2023-03-14T21:27:01.871Z,8.23
2023-03-14T21:29:28.643Z,8.65
2023-03-14T21:31:55.479Z,7.38
2023-03-14T21:34:26.774Z,8.05
2023-03-14T21:39:20.248Z,7.03
2023-03-14T21:41:46.991Z,7.05
2023-03-14T21:44:16.463Z,7.72
2023-03-14T21:46:46.214Z,7.47
2023-03-14T21:49:16.319Z,9.00
2023-03-14T21:51:46.095Z,7.45
2023-03-14T21:54:15.452Z,7.20
2023-03-14T21:56:43.186Z,8.07
2023-03-14T21:59:10.536Z,6.53
2023-03-14T22:01:37.414Z,7.30
2023-03-14T22:04:04.257Z,6.50
2023-03-14T22:06:31.128Z,7.53
2023-03-14T22:08:58.065Z,6.30
2023-03-14T22:11:25.163Z,5.90
2023-03-14T22:13:52.005Z,7.18
2023-03-14T22:16:18.919Z,6.25
2023-03-14T22:18:45.820Z,6.75
2023-03-14T22:21:12.659Z,6.03
2023-03-14T22:23:39.437Z,5.03
2023-03-14T22:26:06.205Z,5.05
2023-03-14T22:28:33.052Z,6.00
2023-03-14T22:31:02.919Z,4.60
2023-03-14T22:33:30.114Z,6.43
2023-03-14T22:35:57.012Z,5.38
2023-03-14T22:38:24.009Z,5.43
2023-03-14T22:40:50.852Z,4.65
2023-03-14T22:43:17.682Z,5.85
2023-03-14T22:45:44.521Z,5.30
2023-03-14T22:48:11.275Z,5.00
2023-03-14T22:50:39.468Z,4.32
2023-03-14T22:53:06.566Z,5.05
2023-03-14T22:55:33.409Z,4.30
2023-03-14T22:58:00.323Z,4.30
2023-03-14T23:00:28.118Z,4.53
2023-03-14T23:02:55.157Z,4.57
2023-03-14T23:05:22.120Z,4.30
2023-03-14T23:07:48.851Z,4.85
2023-03-14T23:10:16.029Z,4.80
2023-03-14T23:12:45.336Z,5.43
2023-03-14T23:15:15.618Z,5.38
2023-03-14T23:17:43.186Z,5.07
2023-03-14T23:20:10.512Z,4.85
2023-03-14T23:22:37.328Z,4.55
2023-03-14T23:25:04.353Z,4.88
2023-03-14T23:27:31.584Z,4.90
2023-03-14T23:29:58.409Z,5.72
2023-03-14T23:32:25.217Z,5.10
2023-03-14T23:34:52.015Z,6.63
2023-03-14T23:37:18.927Z,5.72
2023-03-14T23:39:45.811Z,5.90
2023-03-14T23:42:12.734Z,6.10
2023-03-14T23:44:39.572Z,6.57
2023-03-14T23:47:06.432Z,5.80
2023-03-14T23:49:33.176Z,6.13
2023-03-14T23:51:59.857Z,7.90
2023-03-14T23:54:27.685Z,7.15
2023-03-14T23:56:54.465Z,6.20
2023-03-14T23:59:21.232Z,5.63
